sensor_id;sensor_type;location;lat;lon;timestamp;P1;durP1;ratioP1;P2;durP2;ratioP2
43809;SDS011;29440;48.208;11.162;2022-09-20T00:01:18;1.38;;;0.60;;
43809;SDS011;29440;48.208;11.162;2022-09-20T00:03:53;2.03;;;0.70;;
43809;SDS011;29440;48.208;11.162;2022-09-20T00:06:22;2.72;;;0.50;;
43809;SDS011;29440;48.208;11.162;2022-09-20T00:08:53;0.98;;;0.60;;
43809;SDS011;29440;48.208;11.162;2022-09-20T00:11:20;3.72;;;0.70;;
43809;SDS011;29440;48.208;11.162;2022-09-20T00:13:49;3.55;;;0.90;;
43809;SDS011;29440;48.208;11.162;2022-09-20T00:16:20;3.80;;;1.05;;
43809;SDS011;29440;48.208;11.162;2022-09-20T00:18:50;2.17;;;1.10;;
43809;SDS011;29440;48.208;11.162;2022-09-20T00:21:21;2.83;;;1.30;;
43809;SDS011;29440;48.208;11.162;2022-09-20T00:23:52;5.25;;;1.38;;
43809;SDS011;29440;48.208;11.162;2022-09-20T00:26:20;4.32;;;1.42;;
43809;SDS011;29440;48.208;11.162;2022-09-20T00:28:46;3.55;;;1.08;;
43809;SDS011;29440;48.208;11.162;2022-09-20T00:31:14;3.53;;;1.23;;
43809;SDS011;29440;48.208;11.162;2022-09-20T00:33:40;2.97;;;1.40;;
43809;SDS011;29440;48.208;11.162;2022-09-20T00:36:25;1.67;;;0.88;;
43809;SDS011;29440;48.208;11.162;2022-09-20T00:38:55;3.97;;;1.08;;
43809;SDS011;29440;48.208;11.162;2022-09-20T00:41:22;4.05;;;1.60;;
43809;SDS011;29440;48.208;11.162;2022-09-20T00:43:49;2.42;;;0.93;;
43809;SDS011;29440;48.208;11.162;2022-09-20T00:49:18;3.08;;;0.70;;
43809;SDS011;29440;48.208;11.162;2022-09-20T00:51:48;2.83;;;0.80;;
43809;SDS011;29440;48.208;11.162;2022-09-20T00:54:19;2.00;;;0.77;;
43809;SDS011;29440;48.208;11.162;2022-09-20T00:56:47;1.58;;;0.70;;
43809;SDS011;29440;48.208;11.162;2022-09-20T00:59:15;2.10;;;0.60;;
43809;SDS011;29440;48.208;11.162;2022-09-20T01:01:45;2.83;;;0.80;;
43809;SDS011;29440;48.208;11.162;2022-09-20T01:04:13;2.83;;;0.77;;
43809;SDS011;29440;48.208;11.162;2022-09-20T01:06:41;2.88;;;0.73;;
43809;SDS011;29440;48.208;11.162;2022-09-20T01:09:09;5.75;;;0.80;;
43809;SDS011;29440;48.208;11.162;2022-09-20T01:11:35;3.20;;;0.80;;
43809;SDS011;29440;48.208;11.162;2022-09-20T01:14:02;2.22;;;0.60;;
43809;SDS011;29440;48.208;11.162;2022-09-20T01:16:31;1.08;;;0.70;;
43809;SDS011;29440;48.208;11.162;2022-09-20T01:19:01;3.90;;;0.95;;
43809;SDS011;29440;48.208;11.162;2022-09-20T01:21:38;2.30;;;0.73;;
43809;SDS011;29440;48.208;11.162;2022-09-20T01:32:07;1.92;;;0.70;;
43809;SDS011;29440;48.208;11.162;2022-09-20T01:34:45;4.07;;;0.70;;
43809;SDS011;29440;48.208;11.162;2022-09-20T01:37:23;2.72;;;0.82;;
43809;SDS011;29440;48.208;11.162;2022-09-20T01:39:56;2.30;;;1.38;;
43809;SDS011;29440;48.208;11.162;2022-09-20T01:45:41;2.72;;;0.98;;
43809;SDS011;29440;48.208;11.162;2022-09-20T01:48:22;2.53;;;0.80;;
43809;SDS011;29440;48.208;11.162;2022-09-20T02:05:11;1.65;;;1.08;;
43809;SDS011;29440;48.208;11.162;2022-09-20T02:16:56;3.33;;;1.20;;
43809;SDS011;29440;48.208;11.162;2022-09-20T02:19:40;2.30;;;1.20;;
43809;SDS011;29440;48.208;11.162;2022-09-20T02:47:32;3.72;;;1.10;;
43809;SDS011;29440;48.208;11.162;2022-09-20T02:50:10;1.52;;;1.05;;
43809;SDS011;29440;48.208;11.162;2022-09-20T02:55:32;3.25;;;1.30;;
43809;SDS011;29440;48.208;11.162;2022-09-20T02:58:26;2.40;;;1.00;;
43809;SDS011;29440;48.208;11.162;2022-09-20T03:01:24;2.95;;;1.25;;
43809;SDS011;29440;48.208;11.162;2022-09-20T03:04:17;3.38;;;1.80;;
43809;SDS011;29440;48.208;11.162;2022-09-20T03:06:57;4.32;;;1.40;;
43809;SDS011;29440;48.208;11.162;2022-09-20T03:09:44;4.97;;;1.70;;
43809;SDS011;29440;48.208;11.162;2022-09-20T03:12:21;3.10;;;1.17;;
43809;SDS011;29440;48.208;11.162;2022-09-20T03:18:06;5.07;;;1.67;;
43809;SDS011;29440;48.208;11.162;2022-09-20T03:32:07;4.35;;;1.42;;
43809;SDS011;29440;48.208;11.162;2022-09-20T03:34:57;4.68;;;1.20;;
43809;SDS011;29440;48.208;11.162;2022-09-20T03:43:33;4.28;;;1.27;;
43809;SDS011;29440;48.208;11.162;2022-09-20T03:46:29;5.90;;;1.33;;
43809;SDS011;29440;48.208;11.162;2022-09-20T03:55:03;3.22;;;1.35;;
43809;SDS011;29440;48.208;11.162;2022-09-20T04:01:04;3.38;;;1.40;;
43809;SDS011;29440;48.208;11.162;2022-09-20T04:12:34;2.00;;;1.02;;
43809;SDS011;29440;48.208;11.162;2022-09-20T04:15:28;4.18;;;1.35;;
43809;SDS011;29440;48.208;11.162;2022-09-20T04:18:16;4.18;;;1.30;;
43809;SDS011;29440;48.208;11.162;2022-09-20T04:21:09;2.22;;;1.30;;
43809;SDS011;29440;48.208;11.162;2022-09-20T04:26:21;3.70;;;1.50;;
43809;SDS011;29440;48.208;11.162;2022-09-20T04:34:22;4.90;;;1.35;;
43809;SDS011;29440;48.208;11.162;2022-09-20T04:37:24;2.70;;;1.35;;
43809;SDS011;29440;48.208;11.162;2022-09-20T04:42:35;4.40;;;1.48;;
43809;SDS011;29440;48.208;11.162;2022-09-20T05:06:56;6.00;;;2.20;;
43809;SDS011;29440;48.208;11.162;2022-09-20T05:09:49;3.37;;;1.90;;
43809;SDS011;29440;48.208;11.162;2022-09-20T05:12:29;6.40;;;1.92;;
43809;SDS011;29440;48.208;11.162;2022-09-20T05:15:10;9.77;;;2.58;;
43809;SDS011;29440;48.208;11.162;2022-09-20T05:29:20;2.60;;;1.55;;
43809;SDS011;29440;48.208;11.162;2022-09-20T05:32:17;5.85;;;1.90;;
43809;SDS011;29440;48.208;11.162;2022-09-20T05:35:06;5.63;;;1.73;;
43809;SDS011;29440;48.208;11.162;2022-09-20T05:43:08;7.50;;;1.55;;
43809;SDS011;29440;48.208;11.162;2022-09-20T05:45:51;4.63;;;1.35;;
43809;SDS011;29440;48.208;11.162;2022-09-20T05:51:41;3.55;;;1.50;;
43809;SDS011;29440;48.208;11.162;2022-09-20T05:54:37;3.78;;;1.73;;
43809;SDS011;29440;48.208;11.162;2022-09-20T05:57:11;6.03;;;1.83;;
43809;SDS011;29440;48.208;11.162;2022-09-20T05:59:48;7.05;;;1.70;;
43809;SDS011;29440;48.208;11.162;2022-09-20T06:05:14;6.28;;;1.58;;
43809;SDS011;29440;48.208;11.162;2022-09-20T06:13:20;2.80;;;1.35;;
43809;SDS011;29440;48.208;11.162;2022-09-20T06:15:59;4.75;;;1.58;;
43809;SDS011;29440;48.208;11.162;2022-09-20T06:21:34;3.67;;;1.55;;
43809;SDS011;29440;48.208;11.162;2022-09-20T06:27:27;3.13;;;1.33;;
43809;SDS011;29440;48.208;11.162;2022-09-20T06:29:59;4.20;;;1.40;;
43809;SDS011;29440;48.208;11.162;2022-09-20T06:32:29;8.98;;;1.85;;
43809;SDS011;29440;48.208;11.162;2022-09-20T06:34:56;5.93;;;1.75;;
43809;SDS011;29440;48.208;11.162;2022-09-20T06:40:43;4.60;;;2.10;;
43809;SDS011;29440;48.208;11.162;2022-09-20T06:43:36;6.72;;;1.20;;
43809;SDS011;29440;48.208;11.162;2022-09-20T06:46:05;5.65;;;1.30;;
43809;SDS011;29440;48.208;11.162;2022-09-20T06:48:32;6.15;;;1.67;;
43809;SDS011;29440;48.208;11.162;2022-09-20T06:50:59;4.78;;;1.20;;
43809;SDS011;29440;48.208;11.162;2022-09-20T06:53:29;2.38;;;1.20;;
43809;SDS011;29440;48.208;11.162;2022-09-20T06:55:56;3.15;;;1.23;;
43809;SDS011;29440;48.208;11.162;2022-09-20T06:58:24;6.22;;;1.30;;
43809;SDS011;29440;48.208;11.162;2022-09-20T07:00:50;4.40;;;1.10;;
43809;SDS011;29440;48.208;11.162;2022-09-20T07:03:17;4.22;;;1.05;;
43809;SDS011;29440;48.208;11.162;2022-09-20T07:05:43;4.72;;;1.20;;
43809;SDS011;29440;48.208;11.162;2022-09-20T07:08:10;2.10;;;1.00;;
43809;SDS011;29440;48.208;11.162;2022-09-20T07:10:37;4.55;;;1.17;;
43809;SDS011;29440;48.208;11.162;2022-09-20T07:13:13;3.50;;;1.08;;
43809;SDS011;29440;48.208;11.162;2022-09-20T07:15:38;4.10;;;1.10;;
43809;SDS011;29440;48.208;11.162;2022-09-20T07:18:08;5.70;;;1.23;;
43809;SDS011;29440;48.208;11.162;2022-09-20T07:20:35;2.90;;;1.42;;
43809;SDS011;29440;48.208;11.162;2022-09-20T07:23:00;7.68;;;1.85;;
43809;SDS011;29440;48.208;11.162;2022-09-20T07:25:26;7.72;;;1.95;;
43809;SDS011;29440;48.208;11.162;2022-09-20T07:27:52;4.30;;;2.20;;
43809;SDS011;29440;48.208;11.162;2022-09-20T07:30:18;3.67;;;2.03;;
43809;SDS011;29440;48.208;11.162;2022-09-20T07:32:45;5.50;;;2.35;;
43809;SDS011;29440;48.208;11.162;2022-09-20T07:35:11;4.32;;;1.95;;
43809;SDS011;29440;48.208;11.162;2022-09-20T07:37:37;8.68;;;2.10;;
43809;SDS011;29440;48.208;11.162;2022-09-20T07:40:05;6.53;;;2.10;;
43809;SDS011;29440;48.208;11.162;2022-09-20T07:42:33;3.95;;;1.52;;
43809;SDS011;29440;48.208;11.162;2022-09-20T07:44:59;8.65;;;2.58;;
43809;SDS011;29440;48.208;11.162;2022-09-20T07:47:27;5.25;;;2.53;;
43809;SDS011;29440;48.208;11.162;2022-09-20T07:49:56;4.50;;;2.70;;
43809;SDS011;29440;48.208;11.162;2022-09-20T07:52:22;6.38;;;2.55;;
43809;SDS011;29440;48.208;11.162;2022-09-20T07:54:48;5.22;;;2.30;;
43809;SDS011;29440;48.208;11.162;2022-09-20T07:57:14;6.07;;;2.42;;
43809;SDS011;29440;48.208;11.162;2022-09-20T07:59:40;7.60;;;2.70;;
43809;SDS011;29440;48.208;11.162;2022-09-20T08:02:08;7.25;;;3.10;;
43809;SDS011;29440;48.208;11.162;2022-09-20T08:04:38;6.93;;;2.33;;
43809;SDS011;29440;48.208;11.162;2022-09-20T08:07:04;4.95;;;3.05;;
43809;SDS011;29440;48.208;11.162;2022-09-20T08:09:30;4.30;;;2.20;;
43809;SDS011;29440;48.208;11.162;2022-09-20T08:11:56;2.55;;;1.63;;
43809;SDS011;29440;48.208;11.162;2022-09-20T08:14:22;7.50;;;1.50;;
43809;SDS011;29440;48.208;11.162;2022-09-20T08:16:48;4.47;;;1.45;;
43809;SDS011;29440;48.208;11.162;2022-09-20T08:19:19;8.05;;;2.17;;
43809;SDS011;29440;48.208;11.162;2022-09-20T08:21:47;4.22;;;2.38;;
43809;SDS011;29440;48.208;11.162;2022-09-20T08:24:14;6.00;;;2.45;;
43809;SDS011;29440;48.208;11.162;2022-09-20T08:26:41;7.82;;;2.47;;
43809;SDS011;29440;48.208;11.162;2022-09-20T08:29:12;5.85;;;2.50;;
43809;SDS011;29440;48.208;11.162;2022-09-20T08:31:39;6.40;;;2.28;;
43809;SDS011;29440;48.208;11.162;2022-09-20T08:34:08;6.13;;;2.10;;
43809;SDS011;29440;48.208;11.162;2022-09-20T08:36:38;10.98;;;2.97;;
43809;SDS011;29440;48.208;11.162;2022-09-20T08:39:05;5.20;;;2.47;;
43809;SDS011;29440;48.208;11.162;2022-09-20T08:44:12;7.63;;;2.28;;
43809;SDS011;29440;48.208;11.162;2022-09-20T08:46:54;6.05;;;2.35;;
43809;SDS011;29440;48.208;11.162;2022-09-20T08:49:31;4.50;;;1.90;;
43809;SDS011;29440;48.208;11.162;2022-09-20T08:51:58;6.07;;;2.38;;
43809;SDS011;29440;48.208;11.162;2022-09-20T08:54:26;6.85;;;1.75;;
43809;SDS011;29440;48.208;11.162;2022-09-20T08:56:55;5.63;;;1.83;;
43809;SDS011;29440;48.208;11.162;2022-09-20T08:59:22;3.22;;;1.58;;
43809;SDS011;29440;48.208;11.162;2022-09-20T09:01:49;8.55;;;1.75;;
43809;SDS011;29440;48.208;11.162;2022-09-20T09:04:21;5.95;;;1.38;;
43809;SDS011;29440;48.208;11.162;2022-09-20T09:06:49;4.50;;;1.38;;
43809;SDS011;29440;48.208;11.162;2022-09-20T09:09:17;4.25;;;1.85;;
43809;SDS011;29440;48.208;11.162;2022-09-20T09:11:48;6.30;;;1.83;;
43809;SDS011;29440;48.208;11.162;2022-09-20T09:14:20;4.75;;;1.73;;
43809;SDS011;29440;48.208;11.162;2022-09-20T09:17:20;3.88;;;1.77;;
43809;SDS011;29440;48.208;11.162;2022-09-20T09:22:20;6.57;;;1.80;;
43809;SDS011;29440;48.208;11.162;2022-09-20T09:25:06;3.47;;;1.23;;
43809;SDS011;29440;48.208;11.162;2022-09-20T09:27:51;4.15;;;1.45;;
43809;SDS011;29440;48.208;11.162;2022-09-20T09:30:20;3.55;;;1.52;;
43809;SDS011;29440;48.208;11.162;2022-09-20T09:36:05;6.55;;;1.10;;
43809;SDS011;29440;48.208;11.162;2022-09-20T09:38:40;4.82;;;1.20;;
43809;SDS011;29440;48.208;11.162;2022-09-20T09:43:57;4.07;;;1.27;;
43809;SDS011;29440;48.208;11.162;2022-09-20T09:46:42;5.35;;;1.17;;
43809;SDS011;29440;48.208;11.162;2022-09-20T09:49:13;3.17;;;1.20;;
43809;SDS011;29440;48.208;11.162;2022-09-20T09:51:58;2.95;;;1.13;;
43809;SDS011;29440;48.208;11.162;2022-09-20T10:08:22;7.93;;;1.45;;
43809;SDS011;29440;48.208;11.162;2022-09-20T10:20:09;5.65;;;1.70;;
43809;SDS011;29440;48.208;11.162;2022-09-20T10:26:08;3.53;;;1.70;;
43809;SDS011;29440;48.208;11.162;2022-09-20T10:29:11;6.55;;;1.40;;
43809;SDS011;29440;48.208;11.162;2022-09-20T10:37:14;3.22;;;1.25;;
43809;SDS011;29440;48.208;11.162;2022-09-20T10:39:59;4.90;;;1.65;;
43809;SDS011;29440;48.208;11.162;2022-09-20T10:45:42;7.18;;;1.08;;
43809;SDS011;29440;48.208;11.162;2022-09-20T10:48:40;3.55;;;1.25;;
43809;SDS011;29440;48.208;11.162;2022-09-20T10:54:05;6.18;;;1.35;;
43809;SDS011;29440;48.208;11.162;2022-09-20T10:56:45;6.88;;;1.13;;
43809;SDS011;29440;48.208;11.162;2022-09-20T11:13:21;8.27;;;1.60;;
43809;SDS011;29440;48.208;11.162;2022-09-20T11:15:51;6.80;;;1.10;;
43809;SDS011;29440;48.208;11.162;2022-09-20T11:18:40;3.97;;;0.90;;
43809;SDS011;29440;48.208;11.162;2022-09-20T11:21:25;2.03;;;0.52;;
43809;SDS011;29440;48.208;11.162;2022-09-20T11:24:01;8.35;;;0.75;;
43809;SDS011;29440;48.208;11.162;2022-09-20T11:26:37;4.63;;;0.70;;
43809;SDS011;29440;48.208;11.162;2022-09-20T11:32:28;3.50;;;0.75;;
43809;SDS011;29440;48.208;11.162;2022-09-20T11:37:36;2.88;;;0.85;;
43809;SDS011;29440;48.208;11.162;2022-09-20T11:40:16;3.45;;;0.80;;
43809;SDS011;29440;48.208;11.162;2022-09-20T11:42:48;2.67;;;0.80;;
43809;SDS011;29440;48.208;11.162;2022-09-20T11:45:16;7.20;;;1.00;;
43809;SDS011;29440;48.208;11.162;2022-09-20T11:47:45;5.45;;;0.98;;
43809;SDS011;29440;48.208;11.162;2022-09-20T12:01:22;4.53;;;0.70;;
43809;SDS011;29440;48.208;11.162;2022-09-20T12:06:36;4.55;;;1.00;;
43809;SDS011;29440;48.208;11.162;2022-09-20T12:09:06;4.15;;;0.63;;
43809;SDS011;29440;48.208;11.162;2022-09-20T12:11:48;2.83;;;0.60;;
43809;SDS011;29440;48.208;11.162;2022-09-20T12:14:17;7.25;;;1.10;;
43809;SDS011;29440;48.208;11.162;2022-09-20T12:16:51;6.70;;;0.70;;
43809;SDS011;29440;48.208;11.162;2022-09-20T12:24:26;3.90;;;0.75;;
43809;SDS011;29440;48.208;11.162;2022-09-20T12:26:57;4.18;;;0.55;;
43809;SDS011;29440;48.208;11.162;2022-09-20T12:31:57;3.88;;;0.80;;
43809;SDS011;29440;48.208;11.162;2022-09-20T12:44:28;2.10;;;0.60;;
43809;SDS011;29440;48.208;11.162;2022-09-20T13:00:38;3.65;;;0.93;;
43809;SDS011;29440;48.208;11.162;2022-09-20T13:05:43;5.30;;;0.65;;
43809;SDS011;29440;48.208;11.162;2022-09-20T13:08:16;3.55;;;0.57;;
43809;SDS011;29440;48.208;11.162;2022-09-20T13:10:47;3.72;;;0.63;;
43809;SDS011;29440;48.208;11.162;2022-09-20T13:13:30;2.80;;;0.80;;
43809;SDS011;29440;48.208;11.162;2022-09-20T13:16:06;7.90;;;0.80;;
43809;SDS011;29440;48.208;11.162;2022-09-20T13:18:43;6.15;;;1.15;;
43809;SDS011;29440;48.208;11.162;2022-09-20T13:21:11;4.50;;;0.75;;
43809;SDS011;29440;48.208;11.162;2022-09-20T13:23:45;1.80;;;0.60;;
43809;SDS011;29440;48.208;11.162;2022-09-20T13:26:13;0.70;;;0.47;;
43809;SDS011;29440;48.208;11.162;2022-09-20T13:28:48;2.88;;;0.70;;
43809;SDS011;29440;48.208;11.162;2022-09-20T13:31:25;3.53;;;0.60;;
43809;SDS011;29440;48.208;11.162;2022-09-20T13:36:19;6.18;;;0.80;;
43809;SDS011;29440;48.208;11.162;2022-09-20T13:38:50;3.70;;;0.60;;
43809;SDS011;29440;48.208;11.162;2022-09-20T13:41:19;4.75;;;0.90;;
43809;SDS011;29440;48.208;11.162;2022-09-20T13:43:45;2.13;;;0.80;;
43809;SDS011;29440;48.208;11.162;2022-09-20T13:46:15;2.78;;;0.70;;
43809;SDS011;29440;48.208;11.162;2022-09-20T13:48:46;3.95;;;0.60;;
43809;SDS011;29440;48.208;11.162;2022-09-20T13:51:16;3.72;;;0.60;;
43809;SDS011;29440;48.208;11.162;2022-09-20T13:53:44;0.77;;;0.40;;
43809;SDS011;29440;48.208;11.162;2022-09-20T13:56:27;4.03;;;0.80;;
43809;SDS011;29440;48.208;11.162;2022-09-20T13:58:54;3.08;;;0.50;;
43809;SDS011;29440;48.208;11.162;2022-09-20T14:03:52;1.25;;;0.50;;
43809;SDS011;29440;48.208;11.162;2022-09-20T14:06:21;3.22;;;0.70;;
43809;SDS011;29440;48.208;11.162;2022-09-20T14:08:53;3.15;;;0.60;;
43809;SDS011;29440;48.208;11.162;2022-09-20T14:13:54;1.33;;;0.70;;
43809;SDS011;29440;48.208;11.162;2022-09-20T14:16:23;8.05;;;0.82;;
43809;SDS011;29440;48.208;11.162;2022-09-20T14:18:53;3.33;;;0.60;;
43809;SDS011;29440;48.208;11.162;2022-09-20T14:21:20;7.90;;;0.65;;
43809;SDS011;29440;48.208;11.162;2022-09-20T14:24:04;3.25;;;0.50;;
43809;SDS011;29440;48.208;11.162;2022-09-20T14:26:32;5.10;;;0.68;;
43809;SDS011;29440;48.208;11.162;2022-09-20T14:34:35;2.28;;;0.38;;
43809;SDS011;29440;48.208;11.162;2022-09-20T14:37:08;3.03;;;0.47;;
43809;SDS011;29440;48.208;11.162;2022-09-20T14:39:51;1.30;;;0.50;;
43809;SDS011;29440;48.208;11.162;2022-09-20T14:42:20;2.72;;;0.43;;
43809;SDS011;29440;48.208;11.162;2022-09-20T14:44:49;1.83;;;0.40;;
43809;SDS011;29440;48.208;11.162;2022-09-20T14:47:16;1.15;;;0.30;;
43809;SDS011;29440;48.208;11.162;2022-09-20T14:49:52;3.08;;;0.50;;
43809;SDS011;29440;48.208;11.162;2022-09-20T14:55:14;4.15;;;0.88;;
43809;SDS011;29440;48.208;11.162;2022-09-20T14:57:42;3.78;;;0.57;;
43809;SDS011;29440;48.208;11.162;2022-09-20T15:00:11;4.32;;;1.25;;
43809;SDS011;29440;48.208;11.162;2022-09-20T15:02:40;2.92;;;0.70;;
43809;SDS011;29440;48.208;11.162;2022-09-20T15:05:15;4.28;;;0.73;;
43809;SDS011;29440;48.208;11.162;2022-09-20T15:07:54;2.38;;;0.50;;
43809;SDS011;29440;48.208;11.162;2022-09-20T15:10:21;2.55;;;0.50;;
43809;SDS011;29440;48.208;11.162;2022-09-20T15:12:47;2.40;;;0.40;;
43809;SDS011;29440;48.208;11.162;2022-09-20T15:15:14;4.97;;;0.60;;
43809;SDS011;29440;48.208;11.162;2022-09-20T15:17:41;2.00;;;0.50;;
43809;SDS011;29440;48.208;11.162;2022-09-20T15:20:18;4.35;;;0.40;;
43809;SDS011;29440;48.208;11.162;2022-09-20T15:22:45;5.60;;;0.70;;
43809;SDS011;29440;48.208;11.162;2022-09-20T15:25:13;1.98;;;0.55;;
43809;SDS011;29440;48.208;11.162;2022-09-20T15:27:42;1.50;;;0.50;;
43809;SDS011;29440;48.208;11.162;2022-09-20T15:30:10;3.22;;;0.40;;
43809;SDS011;29440;48.208;11.162;2022-09-20T15:32:37;2.20;;;0.40;;
43809;SDS011;29440;48.208;11.162;2022-09-20T15:35:03;3.42;;;0.47;;
43809;SDS011;29440;48.208;11.162;2022-09-20T15:37:30;4.72;;;0.60;;
43809;SDS011;29440;48.208;11.162;2022-09-20T15:39:55;2.25;;;0.50;;
43809;SDS011;29440;48.208;11.162;2022-09-20T15:42:21;3.20;;;0.60;;
43809;SDS011;29440;48.208;11.162;2022-09-20T15:44:47;5.15;;;0.80;;
43809;SDS011;29440;48.208;11.162;2022-09-20T15:47:15;4.13;;;0.57;;
43809;SDS011;29440;48.208;11.162;2022-09-20T15:49:41;2.50;;;0.50;;
43809;SDS011;29440;48.208;11.162;2022-09-20T15:52:11;3.00;;;0.50;;
43809;SDS011;29440;48.208;11.162;2022-09-20T15:54:37;3.55;;;0.60;;
43809;SDS011;29440;48.208;11.162;2022-09-20T15:57:03;0.70;;;0.40;;
43809;SDS011;29440;48.208;11.162;2022-09-20T15:59:28;1.70;;;0.50;;
43809;SDS011;29440;48.208;11.162;2022-09-20T16:01:55;3.08;;;0.60;;
43809;SDS011;29440;48.208;11.162;2022-09-20T16:04:20;5.68;;;0.60;;
43809;SDS011;29440;48.208;11.162;2022-09-20T16:06:46;3.83;;;0.80;;
43809;SDS011;29440;48.208;11.162;2022-09-20T16:09:14;3.03;;;0.80;;
43809;SDS011;29440;48.208;11.162;2022-09-20T16:11:39;3.85;;;0.52;;
43809;SDS011;29440;48.208;11.162;2022-09-20T16:14:05;3.35;;;0.50;;
43809;SDS011;29440;48.208;11.162;2022-09-20T16:16:31;2.90;;;0.40;;
43809;SDS011;29440;48.208;11.162;2022-09-20T16:18:58;3.50;;;0.57;;
43809;SDS011;29440;48.208;11.162;2022-09-20T16:21:48;3.45;;;1.20;;
43809;SDS011;29440;48.208;11.162;2022-09-20T16:24:18;4.93;;;1.15;;
43809;SDS011;29440;48.208;11.162;2022-09-20T16:26:47;2.85;;;1.00;;
43809;SDS011;29440;48.208;11.162;2022-09-20T16:29:12;2.95;;;0.50;;
43809;SDS011;29440;48.208;11.162;2022-09-20T16:31:41;6.68;;;1.05;;
43809;SDS011;29440;48.208;11.162;2022-09-20T16:36:51;3.28;;;0.60;;
43809;SDS011;29440;48.208;11.162;2022-09-20T16:39:18;4.18;;;0.50;;
43809;SDS011;29440;48.208;11.162;2022-09-20T16:41:46;1.27;;;0.40;;
43809;SDS011;29440;48.208;11.162;2022-09-20T16:44:13;1.77;;;0.60;;
43809;SDS011;29440;48.208;11.162;2022-09-20T16:46:39;2.28;;;0.60;;
43809;SDS011;29440;48.208;11.162;2022-09-20T16:49:06;2.97;;;0.50;;
43809;SDS011;29440;48.208;11.162;2022-09-20T16:51:36;1.77;;;0.40;;
43809;SDS011;29440;48.208;11.162;2022-09-20T16:54:05;3.78;;;0.60;;
43809;SDS011;29440;48.208;11.162;2022-09-20T16:56:34;1.30;;;0.40;;
43809;SDS011;29440;48.208;11.162;2022-09-20T16:59:00;6.32;;;1.50;;
43809;SDS011;29440;48.208;11.162;2022-09-20T17:01:27;5.57;;;2.13;;
43809;SDS011;29440;48.208;11.162;2022-09-20T17:03:54;4.72;;;1.20;;
43809;SDS011;29440;48.208;11.162;2022-09-20T17:06:21;5.10;;;0.50;;
43809;SDS011;29440;48.208;11.162;2022-09-20T17:08:51;1.55;;;0.40;;
43809;SDS011;29440;48.208;11.162;2022-09-20T17:11:18;2.15;;;0.50;;
43809;SDS011;29440;48.208;11.162;2022-09-20T17:13:46;3.15;;;0.57;;
43809;SDS011;29440;48.208;11.162;2022-09-20T17:16:16;4.60;;;0.50;;
43809;SDS011;29440;48.208;11.162;2022-09-20T17:18:43;8.93;;;0.80;;
43809;SDS011;29440;48.208;11.162;2022-09-20T17:21:12;4.78;;;0.80;;
43809;SDS011;29440;48.208;11.162;2022-09-20T17:23:40;4.30;;;0.50;;
43809;SDS011;29440;48.208;11.162;2022-09-20T17:26:09;6.20;;;0.60;;
43809;SDS011;29440;48.208;11.162;2022-09-20T17:28:41;2.22;;;0.43;;
43809;SDS011;29440;48.208;11.162;2022-09-20T17:31:24;5.03;;;1.00;;
43809;SDS011;29440;48.208;11.162;2022-09-20T17:33:55;7.85;;;0.80;;
43809;SDS011;29440;48.208;11.162;2022-09-20T17:36:24;3.42;;;0.73;;
43809;SDS011;29440;48.208;11.162;2022-09-20T17:38:52;3.28;;;0.70;;
43809;SDS011;29440;48.208;11.162;2022-09-20T17:41:20;2.70;;;0.73;;
43809;SDS011;29440;48.208;11.162;2022-09-20T17:43:46;3.53;;;0.93;;
43809;SDS011;29440;48.208;11.162;2022-09-20T17:46:17;4.10;;;0.50;;
43809;SDS011;29440;48.208;11.162;2022-09-20T17:48:46;1.92;;;0.65;;
43809;SDS011;29440;48.208;11.162;2022-09-20T17:51:16;1.77;;;0.50;;
43809;SDS011;29440;48.208;11.162;2022-09-20T17:53:43;3.53;;;0.70;;
43809;SDS011;29440;48.208;11.162;2022-09-20T17:56:10;4.32;;;0.60;;
43809;SDS011;29440;48.208;11.162;2022-09-20T17:58:37;4.20;;;0.60;;
43809;SDS011;29440;48.208;11.162;2022-09-20T18:01:05;4.78;;;1.00;;
43809;SDS011;29440;48.208;11.162;2022-09-20T18:03:36;3.17;;;0.80;;
43809;SDS011;29440;48.208;11.162;2022-09-20T18:06:09;9.70;;;1.33;;
43809;SDS011;29440;48.208;11.162;2022-09-20T18:08:36;3.30;;;1.00;;
43809;SDS011;29440;48.208;11.162;2022-09-20T18:11:02;10.98;;;5.88;;
43809;SDS011;29440;48.208;11.162;2022-09-20T18:13:28;5.68;;;2.60;;
43809;SDS011;29440;48.208;11.162;2022-09-20T18:15:54;10.13;;;1.23;;
43809;SDS011;29440;48.208;11.162;2022-09-20T18:18:20;7.75;;;1.38;;
43809;SDS011;29440;48.208;11.162;2022-09-20T18:20:46;2.35;;;0.70;;
43809;SDS011;29440;48.208;11.162;2022-09-20T18:23:12;4.13;;;0.80;;
43809;SDS011;29440;48.208;11.162;2022-09-20T18:25:38;7.63;;;1.10;;
43809;SDS011;29440;48.208;11.162;2022-09-20T18:28:22;6.57;;;0.88;;
43809;SDS011;29440;48.208;11.162;2022-09-20T18:30:57;4.57;;;0.75;;
43809;SDS011;29440;48.208;11.162;2022-09-20T18:33:27;6.18;;;0.80;;
43809;SDS011;29440;48.208;11.162;2022-09-20T18:35:58;2.78;;;1.20;;
43809;SDS011;29440;48.208;11.162;2022-09-20T18:38:24;5.57;;;1.67;;
43809;SDS011;29440;48.208;11.162;2022-09-20T18:40:56;5.25;;;1.60;;
43809;SDS011;29440;48.208;11.162;2022-09-20T18:43:25;5.00;;;1.23;;
43809;SDS011;29440;48.208;11.162;2022-09-20T18:45:52;3.03;;;1.40;;
43809;SDS011;29440;48.208;11.162;2022-09-20T18:48:19;3.22;;;1.50;;
43809;SDS011;29440;48.208;11.162;2022-09-20T18:50:59;17.95;;;7.63;;
43809;SDS011;29440;48.208;11.162;2022-09-20T18:53:27;19.08;;;8.45;;
43809;SDS011;29440;48.208;11.162;2022-09-20T18:56:07;14.18;;;7.50;;
43809;SDS011;29440;48.208;11.162;2022-09-20T18:58:44;15.73;;;5.75;;
43809;SDS011;29440;48.208;11.162;2022-09-20T19:09:45;10.23;;;4.00;;
43809;SDS011;29440;48.208;11.162;2022-09-20T19:12:28;11.68;;;3.75;;
43809;SDS011;29440;48.208;11.162;2022-09-20T19:18:20;3.33;;;0.80;;
43809;SDS011;29440;48.208;11.162;2022-09-20T19:24:00;4.18;;;0.90;;
43809;SDS011;29440;48.208;11.162;2022-09-20T19:26:49;3.28;;;0.73;;
43809;SDS011;29440;48.208;11.162;2022-09-20T19:29:22;3.30;;;0.60;;
43809;SDS011;29440;48.208;11.162;2022-09-20T19:31:51;2.53;;;0.70;;
43809;SDS011;29440;48.208;11.162;2022-09-20T19:34:24;4.75;;;0.90;;
43809;SDS011;29440;48.208;11.162;2022-09-20T19:37:06;4.15;;;0.82;;
43809;SDS011;29440;48.208;11.162;2022-09-20T19:45:42;3.20;;;0.80;;
43809;SDS011;29440;48.208;11.162;2022-09-20T19:48:37;2.60;;;0.88;;
43809;SDS011;29440;48.208;11.162;2022-09-20T19:51:06;3.72;;;0.88;;
43809;SDS011;29440;48.208;11.162;2022-09-20T19:53:34;3.28;;;0.82;;
43809;SDS011;29440;48.208;11.162;2022-09-20T19:58:54;2.72;;;0.60;;
43809;SDS011;29440;48.208;11.162;2022-09-20T20:01:23;1.42;;;0.63;;
43809;SDS011;29440;48.208;11.162;2022-09-20T20:03:50;7.63;;;0.80;;
43809;SDS011;29440;48.208;11.162;2022-09-20T20:06:31;3.13;;;0.63;;
43809;SDS011;29440;48.208;11.162;2022-09-20T20:09:05;4.33;;;1.00;;
43809;SDS011;29440;48.208;11.162;2022-09-20T20:14:37;5.97;;;2.80;;
43809;SDS011;29440;48.208;11.162;2022-09-20T20:28:24;8.63;;;2.53;;
43809;SDS011;29440;48.208;11.162;2022-09-20T20:30:50;6.68;;;2.00;;
43809;SDS011;29440;48.208;11.162;2022-09-20T20:33:15;4.40;;;1.40;;
43809;SDS011;29440;48.208;11.162;2022-09-20T20:35:42;6.55;;;1.50;;
43809;SDS011;29440;48.208;11.162;2022-09-20T20:40:42;2.17;;;1.23;;
43809;SDS011;29440;48.208;11.162;2022-09-20T20:43:08;2.55;;;1.38;;
43809;SDS011;29440;48.208;11.162;2022-09-20T20:45:33;5.25;;;1.55;;
43809;SDS011;29440;48.208;11.162;2022-09-20T20:47:59;5.25;;;1.75;;
43809;SDS011;29440;48.208;11.162;2022-09-20T20:50:25;6.50;;;1.33;;
43809;SDS011;29440;48.208;11.162;2022-09-20T20:52:52;2.92;;;0.95;;